createdAt,value
2023-02-21T00:05:05.063Z,1.10
2023-02-21T00:10:26.205Z,1.20
2023-02-21T00:15:47.107Z,1.13
2023-02-21T00:21:07.905Z,1.50
2023-02-21T00:26:28.987Z,1.33
2023-02-21T00:31:49.545Z,1.27
2023-02-21T00:37:11.694Z,1.65
2023-02-21T00:42:32.165Z,1.63
2023-02-21T00:47:53.026Z,0.90
2023-02-21T00:53:13.811Z,1.63
2023-02-21T00:58:34.581Z,1.88
2023-02-21T01:03:55.440Z,2.08
2023-02-21T01:09:16.116Z,1.65
2023-02-21T01:14:37.123Z,1.83
2023-02-21T01:19:57.789Z,2.03
2023-02-21T01:25:18.578Z,3.60
2023-02-21T01:30:39.448Z,2.80
2023-02-21T01:36:00.294Z,2.38
2023-02-21T01:41:21.835Z,2.70
2023-02-21T01:46:42.812Z,3.30
2023-02-21T01:52:03.457Z,3.40
2023-02-21T01:57:24.908Z,2.45
2023-02-21T02:03:06.428Z,2.03
2023-02-21T02:08:27.153Z,2.40
2023-02-21T02:13:29.572Z,2.30
2023-02-21T02:19:06.973Z,2.33
2023-02-21T02:24:21.820Z,2.53
2023-02-21T02:29:42.753Z,2.78
2023-02-21T02:34:54.304Z,2.40
2023-02-21T02:40:02.941Z,2.55
2023-02-21T02:45:18.561Z,2.60
2023-02-21T02:50:20.884Z,2.90
2023-02-21T02:55:49.239Z,1.92
2023-02-21T03:01:18.126Z,3.50
2023-02-21T03:06:40.036Z,2.78
2023-02-21T03:11:55.848Z,3.63
2023-02-21T03:17:00.767Z,3.78
2023-02-21T03:22:08.606Z,3.10
2023-02-21T03:27:12.777Z,3.13
2023-02-21T03:32:47.902Z,3.92
2023-02-21T03:37:55.070Z,3.72
2023-02-21T03:43:01.332Z,4.20
2023-02-21T03:48:07.652Z,3.80
2023-02-21T03:53:12.043Z,3.90
2023-02-21T03:58:17.930Z,3.53
2023-02-21T04:03:20.328Z,4.45
2023-02-21T04:08:31.729Z,5.00
2023-02-21T04:13:34.090Z,3.08
2023-02-21T04:18:37.940Z,3.70
2023-02-21T04:23:42.738Z,4.03
2023-02-21T04:28:45.127Z,5.00
2023-02-21T04:33:47.434Z,4.97
2023-02-21T04:38:57.079Z,4.65
2023-02-21T04:43:59.330Z,5.15
2023-02-21T04:49:01.545Z,5.85
2023-02-21T04:54:03.876Z,7.10
2023-02-21T04:59:06.060Z,4.65
2023-02-21T05:04:08.767Z,6.53
2023-02-21T05:09:11.054Z,5.55
2023-02-21T05:14:13.274Z,6.32
2023-02-21T05:19:27.590Z,5.65
2023-02-21T05:24:31.291Z,5.72
2023-02-21T05:29:34.785Z,4.85
2023-02-21T05:34:37.182Z,5.07
2023-02-21T05:39:39.772Z,3.85
2023-02-21T05:44:43.915Z,4.25
2023-02-21T05:49:46.173Z,5.13
2023-02-21T05:54:48.365Z,3.83
2023-02-21T05:59:50.559Z,3.90
2023-02-21T06:04:52.730Z,2.78
2023-02-21T06:09:54.996Z,2.33
2023-02-21T06:14:57.317Z,2.78
2023-02-21T06:19:59.701Z,2.92
2023-02-21T06:25:02.052Z,2.45
2023-02-21T06:30:06.147Z,2.42
2023-02-21T06:35:08.497Z,1.75
2023-02-21T06:40:10.807Z,1.88
2023-02-21T06:45:12.968Z,2.30
2023-02-21T06:50:15.049Z,2.25
2023-02-21T06:55:20.796Z,2.08
2023-02-21T07:00:23.172Z,2.28
2023-02-21T07:05:25.646Z,2.40
2023-02-21T07:10:28.218Z,2.17
2023-02-21T07:15:30.422Z,3.10
2023-02-21T07:20:33.641Z,2.55
2023-02-21T07:25:35.874Z,2.88
2023-02-21T07:30:38.092Z,2.55
2023-02-21T07:35:40.307Z,2.05
2023-02-21T07:40:42.456Z,2.97
2023-02-21T07:45:44.733Z,2.67
2023-02-21T07:50:47.678Z,3.28
2023-02-21T07:55:49.915Z,2.35
2023-02-21T08:00:53.569Z,2.95
2023-02-21T08:05:55.825Z,4.13
2023-02-21T08:10:58.033Z,3.30
2023-02-21T08:16:00.307Z,4.22
2023-02-21T08:21:02.596Z,3.38
2023-02-21T08:26:05.251Z,3.50
2023-02-21T08:31:07.609Z,2.90
2023-02-21T08:36:09.945Z,4.57
2023-02-21T08:41:12.293Z,4.13
2023-02-21T08:46:16.013Z,4.10
2023-02-21T08:51:18.271Z,4.80
2023-02-21T08:56:23.754Z,4.45
2023-02-21T09:01:30.998Z,4.93
2023-02-21T09:06:33.341Z,4.82
2023-02-21T09:11:35.584Z,7.20
2023-02-21T09:16:37.920Z,5.93
2023-02-21T09:21:45.745Z,6.82
2023-02-21T09:26:49.846Z,7.72
2023-02-21T09:31:52.587Z,6.38
2023-02-21T09:36:57.820Z,6.50
2023-02-21T09:42:00.043Z,7.63
2023-02-21T09:47:04.738Z,7.22
2023-02-21T09:52:08.684Z,6.75
2023-02-21T09:57:12.904Z,5.85
2023-02-21T10:02:40.900Z,5.10
2023-02-21T10:07:51.525Z,3.38
2023-02-21T10:13:06.925Z,5.20
2023-02-21T10:18:19.303Z,4.18
2023-02-21T10:23:24.744Z,2.80
2023-02-21T10:28:27.217Z,3.58
2023-02-21T10:33:30.511Z,4.03
2023-02-21T10:38:32.674Z,3.88
2023-02-21T10:43:37.043Z,3.28
2023-02-21T10:48:41.698Z,3.65
2023-02-21T10:53:45.107Z,2.35
2023-02-21T10:58:48.767Z,1.70
2023-02-21T11:03:55.692Z,1.73
2023-02-21T11:08:58.365Z,1.60
2023-02-21T11:14:08.606Z,1.05
2023-02-21T11:19:13.083Z,1.48
2023-02-21T11:24:15.422Z,1.42
2023-02-21T11:29:19.905Z,0.85
2023-02-21T11:34:22.117Z,0.40
2023-02-21T11:39:29.838Z,0.98
2023-02-21T11:44:36.623Z,0.93
2023-02-21T11:50:01.775Z,0.50
2023-02-21T11:55:12.764Z,1.00
2023-02-21T12:00:17.885Z,1.40
2023-02-21T12:05:32.271Z,1.20
2023-02-21T12:10:53.628Z,1.15
2023-02-21T12:15:58.542Z,1.42
2023-02-21T12:21:01.413Z,1.65
2023-02-21T12:26:03.614Z,1.65
2023-02-21T12:31:18.133Z,1.90
2023-02-21T12:36:27.467Z,1.30
2023-02-21T12:41:36.156Z,2.17
2023-02-21T12:46:45.894Z,2.22
2023-02-21T12:51:51.650Z,2.45
2023-02-21T12:56:58.738Z,3.08
2023-02-21T13:02:04.599Z,3.10
2023-02-21T13:07:25.562Z,2.92
2023-02-21T13:12:27.974Z,3.22
2023-02-21T13:17:30.219Z,3.70
2023-02-21T13:23:10.082Z,3.38
2023-02-21T13:28:15.418Z,3.45
2023-02-21T13:33:46.511Z,3.70
2023-02-21T13:38:59.533Z,4.70
2023-02-21T13:44:08.149Z,4.05
2023-02-21T13:49:28.757Z,3.40
2023-02-21T13:54:30.932Z,4.53
2023-02-21T13:59:34.552Z,4.63
2023-02-21T14:04:55.329Z,5.32
2023-02-21T14:09:57.513Z,4.70
2023-02-21T14:15:07.641Z,5.15
2023-02-21T14:20:15.828Z,4.10
2023-02-21T14:25:19.598Z,6.32
2023-02-21T14:30:24.941Z,5.13
2023-02-21T14:35:32.743Z,5.13
2023-02-21T14:40:42.324Z,5.53
2023-02-21T14:45:44.525Z,5.53
2023-02-21T14:50:46.924Z,4.57
2023-02-21T14:55:49.093Z,4.60
2023-02-21T15:01:09.796Z,5.53
2023-02-21T15:06:14.422Z,6.72
2023-02-21T15:11:20.095Z,6.25
2023-02-21T15:16:22.330Z,5.50
2023-02-21T15:21:24.637Z,6.30
2023-02-21T15:26:31.483Z,5.80
2023-02-21T15:31:34.997Z,5.53
2023-02-21T15:36:37.507Z,6.22
2023-02-21T15:41:46.124Z,7.13
2023-02-21T15:47:00.254Z,6.28
2023-02-21T15:52:02.929Z,6.30
2023-02-21T15:57:11.628Z,6.65
2023-02-21T16:02:15.182Z,5.55
2023-02-21T16:07:19.024Z,6.03
2023-02-21T16:12:29.796Z,6.35
2023-02-21T16:17:41.476Z,6.32
2023-02-21T16:23:06.734Z,6.35
2023-02-21T16:28:12.553Z,6.13
2023-02-21T16:33:14.967Z,7.32
2023-02-21T16:38:19.951Z,4.65
2023-02-21T16:43:24.035Z,6.43
2023-02-21T16:48:28.948Z,6.90
2023-02-21T16:53:31.523Z,7.55
2023-02-21T16:58:35.318Z,8.82
2023-02-21T17:03:37.542Z,7.45
2023-02-21T17:08:39.786Z,6.80
2023-02-21T17:13:42.126Z,6.97
2023-02-21T17:18:45.113Z,6.55
2023-02-21T17:23:47.327Z,5.97
2023-02-21T17:28:49.933Z,6.35
2023-02-21T17:33:52.318Z,3.25
2023-02-21T17:38:55.916Z,5.10
2023-02-21T17:43:59.348Z,4.47
2023-02-21T17:49:01.599Z,5.15
2023-02-21T17:54:03.844Z,4.63
2023-02-21T17:59:06.251Z,3.58
2023-02-21T18:04:08.573Z,3.45
2023-02-21T18:09:11.350Z,4.22
2023-02-21T18:14:13.571Z,2.65
2023-02-21T18:19:16.204Z,3.58
2023-02-21T18:24:23.315Z,4.18
2023-02-21T18:29:25.530Z,3.22
2023-02-21T18:34:27.747Z,3.92
2023-02-21T18:39:29.980Z,3.95
2023-02-21T18:44:33.187Z,3.15
2023-02-21T18:49:40.121Z,2.88
2023-02-21T18:54:46.759Z,1.60
2023-02-21T18:59:48.996Z,1.52
2023-02-21T19:04:51.425Z,1.90
2023-02-21T19:09:54.821Z,1.67
2023-02-21T19:14:57.106Z,1.45
2023-02-21T19:19:59.387Z,1.80
2023-02-21T19:25:01.661Z,1.60
2023-02-21T19:30:05.653Z,2.72
2023-02-21T19:35:08.614Z,3.40
2023-02-21T19:40:10.864Z,2.58
2023-02-21T19:45:14.841Z,2.97
2023-02-21T19:50:17.036Z,2.35
2023-02-21T19:55:19.383Z,3.22
2023-02-21T20:00:21.884Z,3.58
2023-02-21T20:05:24.085Z,2.22
2023-02-21T20:10:26.420Z,2.35
2023-02-21T20:15:28.614Z,3.08
2023-02-21T20:20:30.810Z,2.60
2023-02-21T20:25:32.958Z,3.47
2023-02-21T20:30:35.154Z,2.90
2023-02-21T20:35:37.460Z,2.15
2023-02-21T20:40:40.057Z,2.22
2023-02-21T20:45:42.436Z,2.25
2023-02-21T20:50:46.388Z,1.73
2023-02-21T20:55:48.647Z,1.88
2023-02-21T21:00:50.838Z,2.30
2023-02-21T21:05:52.946Z,1.67
2023-02-21T21:10:55.339Z,1.83
2023-02-21T21:15:57.819Z,2.08
2023-02-21T21:21:00.011Z,1.40
2023-02-21T21:26:02.320Z,1.67
2023-02-21T21:31:04.665Z,1.60
2023-02-21T21:36:09.932Z,1.48
2023-02-21T21:41:15.578Z,0.95
2023-02-21T21:46:17.900Z,1.08
2023-02-21T21:51:20.095Z,0.85
2023-02-21T21:56:27.497Z,1.00
2023-02-21T22:01:30.248Z,1.17
2023-02-21T22:06:32.476Z,1.98
2023-02-21T22:11:35.270Z,1.95
2023-02-21T22:16:38.324Z,2.13
2023-02-21T22:21:40.718Z,2.10
2023-02-21T22:26:45.063Z,2.25
2023-02-21T22:31:47.774Z,1.42
2023-02-21T22:36:54.040Z,1.83
2023-02-21T22:41:57.852Z,2.20
2023-02-21T22:47:00.743Z,2.35
2023-02-21T22:52:04.374Z,2.83
2023-02-21T22:57:07.552Z,2.28
2023-02-21T23:02:09.964Z,1.83
2023-02-21T23:07:12.440Z,2.35
2023-02-21T23:12:15.327Z,2.00
2023-02-21T23:17:18.117Z,2.67
2023-02-21T23:22:20.311Z,3.03
2023-02-21T23:27:22.448Z,2.45
2023-02-21T23:32:25.080Z,2.83
2023-02-21T23:37:27.359Z,2.15
2023-02-21T23:42:31.686Z,3.05
2023-02-21T23:47:33.870Z,2.40
2023-02-21T23:52:37.494Z,2.38
2023-02-21T23:57:43.406Z,2.65
